Time;durP1;ratioP1;P1;durP2;ratioP2;P2;SDS_P1;SDS_P2;PMS_P1;PMS_P2;Temp;Humidity;BMP_temperature;BMP_pressure;BME280_temperature;BME280_humidity;BME280_pressure;Samples;Min_cycle;Max_cycle;Signal;HPM_P1;HPM_P2
2023/04/07 00:00:34;;;;;;;38.25;31.02;;;7.40;99.90;;;;;;5065271;28;20117;-76
2023/04/07 00:03:01;;;;;;;44.50;33.70;;;7.40;99.90;;;;;;5055913;28;20118;-77
2023/04/07 00:05:26;;;;;;;41.75;31.20;;;7.40;99.90;;;;;;5063567;28;20045;-77
2023/04/07 00:07:52;;;;;;;42.33;32.85;;;7.40;99.90;;;;;;5063655;28;20048;-76
2023/04/07 00:10:18;;;;;;;40.05;30.67;;;7.40;99.90;;;;;;5064932;28;20040;-77
2023/04/07 00:12:43;;;;;;;40.83;32.33;;;7.40;99.90;;;;;;5067158;28;20163;-77
2023/04/07 00:15:09;;;;;;;40.53;31.88;;;7.40;99.90;;;;;;5066449;28;20133;-78
2023/04/07 00:17:35;;;;;;;53.33;33.15;;;7.40;99.90;;;;;;5062890;28;20169;-77
2023/04/07 00:20:01;;;;;;;43.60;32.88;;;7.40;99.90;;;;;;5065571;28;20151;-77
2023/04/07 00:22:27;;;;;;;40.53;32.63;;;7.30;99.90;;;;;;5064044;28;20422;-77
2023/04/07 00:24:53;;;;;;;42.10;31.25;;;7.30;99.90;;;;;;5059580;28;20467;-77
2023/04/07 00:27:19;;;;;;;46.10;34.50;;;7.30;99.90;;;;;;5064584;28;20186;-77
2023/04/07 00:29:45;;;;;;;46.80;32.50;;;7.30;99.90;;;;;;5065345;28;20156;-77
2023/04/07 00:32:11;;;;;;;45.85;32.78;;;7.30;99.90;;;;;;5058168;28;20060;-77
2023/04/07 00:34:37;;;;;;;47.15;34.42;;;7.30;99.90;;;;;;5066306;28;20695;-76
2023/04/07 00:37:02;;;;;;;44.67;33.58;;;7.30;99.90;;;;;;5067167;28;20554;-77
2023/04/07 00:39:29;;;;;;;46.80;34.35;;;7.30;99.90;;;;;;5067517;28;20040;-77
2023/04/07 00:41:56;;;;;;;46.28;34.63;;;7.30;99.90;;;;;;5065670;28;20063;-77
2023/04/07 00:44:22;;;;;;;49.00;34.53;;;7.30;99.90;;;;;;5059484;28;20049;-77
2023/04/07 00:46:48;;;;;;;42.95;32.58;;;7.30;99.90;;;;;;5062435;28;20053;-77
2023/04/07 00:49:16;;;;;;;49.17;34.63;;;7.30;99.90;;;;;;5065027;28;20438;-77
2023/04/07 00:51:44;;;;;;;43.50;33.10;;;7.30;99.90;;;;;;5061155;28;20159;-77
2023/04/07 00:54:10;;;;;;;46.70;35.35;;;7.30;99.90;;;;;;5067867;28;20041;-77
2023/04/07 00:56:36;;;;;;;44.97;33.95;;;7.30;99.90;;;;;;5062201;28;20148;-78
2023/04/07 00:59:04;;;;;;;45.00;34.75;;;7.30;99.90;;;;;;5064361;28;20040;-78
2023/04/07 01:01:44;;;;;;;49.80;34.53;;;7.30;99.90;;;;;;5061222;28;20044;-77
2023/04/07 01:04:32;;;;;;;42.95;35.05;;;7.30;99.90;;;;;;5059982;28;20102;-77
2023/04/07 01:07:23;;;;;;;46.03;34.35;;;7.30;99.90;;;;;;5058123;28;20053;-77
2023/04/07 01:10:00;;;;;;;55.92;35.80;;;7.30;99.90;;;;;;5064087;28;20048;-77
2023/04/07 01:12:32;;;;;;;53.58;36.47;;;7.30;99.90;;;;;;5066876;28;20062;-77
2023/04/07 01:15:06;;;;;;;50.25;36.17;;;7.30;99.90;;;;;;5064436;28;20055;-77
2023/04/07 01:17:34;;;;;;;52.95;35.83;;;7.30;99.90;;;;;;5054457;28;20032;-77
2023/04/07 01:20:07;;;;;;;46.00;33.93;;;7.30;99.90;;;;;;5061204;28;20044;-78
2023/04/07 01:22:55;;;;;;;44.13;35.25;;;7.30;99.90;;;;;;5055437;28;20307;-77
2023/04/07 01:25:40;;;;;;;46.80;34.53;;;7.30;99.90;;;;;;5062161;28;20163;-77
2023/04/07 01:28:21;;;;;;;50.33;34.40;;;7.30;99.90;;;;;;5066301;28;20060;-78
2023/04/07 01:30:48;;;;;;;54.53;36.45;;;7.30;99.90;;;;;;5061334;28;20082;-77
2023/04/07 01:33:15;;;;;;;55.53;39.33;;;7.30;99.90;;;;;;5058349;28;20048;-78
2023/04/07 01:35:41;;;;;;;49.40;37.10;;;7.20;99.90;;;;;;5067263;28;20052;-77
2023/04/07 01:38:08;;;;;;;49.05;38.05;;;7.20;99.90;;;;;;5064759;28;20053;-77
2023/04/07 01:40:35;;;;;;;51.33;38.83;;;7.20;99.90;;;;;;5060652;28;20055;-77
2023/04/07 01:43:02;;;;;;;57.30;38.65;;;7.30;99.90;;;;;;5066878;28;20611;-77
2023/04/07 01:45:29;;;;;;;59.38;41.05;;;7.20;99.90;;;;;;5067528;28;20072;-77
2023/04/07 01:47:55;;;;;;;50.90;38.33;;;7.20;99.90;;;;;;5063817;28;20489;-77
2023/04/07 01:50:22;;;;;;;47.22;38.20;;;7.20;99.90;;;;;;5057496;28;20037;-77
2023/04/07 01:52:48;;;;;;;54.22;41.38;;;7.20;99.90;;;;;;5066603;28;20045;-77
2023/04/07 01:55:14;;;;;;;52.60;37.70;;;7.20;99.90;;;;;;5061264;28;20071;-77
2023/04/07 01:57:40;;;;;;;55.63;39.90;;;7.20;99.90;;;;;;5060699;28;20052;-77
2023/04/07 02:00:06;;;;;;;53.40;38.17;;;7.20;99.90;;;;;;5063722;28;20041;-77
2023/04/07 02:02:39;;;;;;;53.97;38.75;;;7.20;99.90;;;;;;5053047;28;20501;-77
2023/04/07 02:05:11;;;;;;;54.28;38.30;;;7.20;99.90;;;;;;5063799;28;20056;-77
2023/04/07 02:08:01;;;;;;;47.28;38.15;;;7.20;99.90;;;;;;5054664;28;20495;-77
2023/04/07 02:10:28;;;;;;;61.95;39.53;;;7.30;99.90;;;;;;5056585;28;20108;-77
2023/04/07 02:12:55;;;;;;;56.28;39.60;;;7.20;99.90;;;;;;5060716;28;20090;-77
2023/04/07 02:15:22;;;;;;;58.58;42.88;;;7.20;99.90;;;;;;5062723;28;20044;-77
2023/04/07 02:17:51;;;;;;;55.25;40.58;;;7.20;99.90;;;;;;5060877;28;20563;-77
2023/04/07 02:20:18;;;;;;;54.45;39.85;;;7.20;99.90;;;;;;5066508;28;20045;-77
2023/04/07 02:22:45;;;;;;;59.37;40.97;;;7.20;99.90;;;;;;5062603;28;20132;-77
2023/04/07 02:25:28;;;;;;;54.60;39.17;;;7.20;99.90;;;;;;5068090;28;20042;-77
2023/04/07 02:27:56;;;;;;;56.15;40.45;;;7.20;99.90;;;;;;5063650;28;20056;-77
2023/04/07 02:30:23;;;;;;;59.33;41.00;;;7.10;99.90;;;;;;5061722;28;20421;-77
2023/04/07 02:32:48;;;;;;;58.00;41.75;;;7.20;99.90;;;;;;5065191;28;20395;-76
2023/04/07 02:35:15;;;;;;;61.28;41.70;;;7.10;99.90;;;;;;5068653;28;20051;-77
2023/04/07 02:37:42;;;;;;;62.65;42.85;;;7.10;99.90;;;;;;5070180;28;20109;-77
2023/04/07 02:40:08;;;;;;;56.45;41.55;;;7.10;99.90;;;;;;5064544;28;20049;-77
2023/04/07 02:42:35;;;;;;;58.67;40.38;;;7.10;99.90;;;;;;5068518;28;20079;-77
2023/04/07 02:45:02;;;;;;;59.13;42.30;;;7.10;99.90;;;;;;5066687;28;20040;-77
2023/04/07 02:47:30;;;;;;;59.25;39.63;;;7.00;99.90;;;;;;5063216;28;20037;-77
2023/04/07 02:49:55;;;;;;;58.40;40.38;;;7.10;99.90;;;;;;5062968;28;20041;-77
2023/04/07 02:52:21;;;;;;;64.65;42.65;;;7.10;99.90;;;;;;5068467;28;20037;-76
2023/04/07 02:54:47;;;;;;;60.28;43.83;;;7.10;99.90;;;;;;5066295;28;20032;-77
2023/04/07 02:57:13;;;;;;;52.55;39.33;;;7.10;99.90;;;;;;5066938;28;20056;-76
2023/04/07 02:59:40;;;;;;;68.03;44.42;;;7.10;99.90;;;;;;5065059;28;20049;-74
2023/04/07 03:02:05;;;;;;;65.47;44.20;;;7.00;99.90;;;;;;5057679;28;20488;-74
2023/04/07 03:04:31;;;;;;;67.13;44.10;;;7.00;99.90;;;;;;5060360;28;20036;-73
2023/04/07 03:06:57;;;;;;;58.08;40.47;;;7.00;99.90;;;;;;5063677;28;20044;-74
2023/04/07 03:09:22;;;;;;;66.18;42.67;;;7.00;99.90;;;;;;5068199;28;20052;-74
2023/04/07 03:11:48;;;;;;;54.20;38.05;;;7.00;99.90;;;;;;5064927;28;20044;-74
2023/04/07 03:14:15;;;;;;;58.17;39.85;;;7.00;99.90;;;;;;5068785;28;20517;-74
2023/04/07 03:16:41;;;;;;;60.13;39.80;;;7.00;99.90;;;;;;5066873;28;20056;-74
2023/04/07 03:19:07;;;;;;;54.97;37.38;;;7.00;99.90;;;;;;5069744;28;20048;-74
2023/04/07 03:21:34;;;;;;;53.90;37.15;;;7.00;99.90;;;;;;5062294;28;20410;-74
2023/04/07 03:24:00;;;;;;;51.97;36.45;;;7.00;99.90;;;;;;5062609;28;20049;-74
2023/04/07 03:26:25;;;;;;;57.95;37.28;;;7.00;99.90;;;;;;5062810;28;20037;-74
2023/04/07 03:28:51;;;;;;;55.03;37.35;;;7.00;99.90;;;;;;5051707;28;20094;-74
2023/04/07 03:31:17;;;;;;;52.53;36.33;;;7.00;99.90;;;;;;5067618;28;20559;-74
2023/04/07 03:33:42;;;;;;;51.13;38.40;;;7.00;99.90;;;;;;5065773;28;20043;-75
2023/04/07 03:36:12;;;;;;;49.58;37.58;;;7.00;99.90;;;;;;5060586;28;20036;-76
2023/04/07 03:38:38;;;;;;;54.83;37.92;;;7.00;99.90;;;;;;5067426;28;20409;-76
2023/04/07 03:41:04;;;;;;;52.17;39.13;;;7.00;99.90;;;;;;5064728;28;20083;-76
2023/04/07 03:43:29;;;;;;;57.10;37.40;;;7.00;99.90;;;;;;5067040;28;20048;-75
2023/04/07 03:45:55;;;;;;;54.92;39.20;;;7.00;99.90;;;;;;5065392;28;20049;-76
2023/04/07 03:48:21;;;;;;;53.80;39.42;;;6.90;99.90;;;;;;5065059;28;20044;-76
2023/04/07 03:50:47;;;;;;;53.08;39.42;;;6.90;99.90;;;;;;5065125;28;20068;-76
2023/04/07 03:53:15;;;;;;;50.78;36.55;;;6.90;99.90;;;;;;5055210;28;20032;-76
2023/04/07 03:55:42;;;;;;;59.70;38.83;;;6.90;99.90;;;;;;5059955;28;20048;-76
2023/04/07 03:58:09;;;;;;;53.10;38.97;;;6.90;99.90;;;;;;5056426;28;20540;-76
2023/04/07 04:00:34;;;;;;;56.85;40.67;;;6.90;99.90;;;;;;5067897;28;20045;-76
2023/04/07 04:03:01;;;;;;;60.17;41.63;;;6.90;99.90;;;;;;5067944;28;20516;-76
2023/04/07 04:05:28;;;;;;;60.92;41.40;;;6.90;99.90;;;;;;5059535;28;20048;-76
2023/04/07 04:07:55;;;;;;;61.53;41.55;;;6.90;99.90;;;;;;5067520;28;20048;-76
2023/04/07 04:10:21;;;;;;;57.30;38.25;;;6.90;99.90;;;;;;5067889;28;20082;-76
2023/04/07 04:12:48;;;;;;;54.63;39.97;;;6.90;99.90;;;;;;5063290;28;20588;-76
2023/04/07 04:15:14;;;;;;;61.92;39.72;;;6.90;99.90;;;;;;5059034;28;20048;-76
2023/04/07 04:17:40;;;;;;;51.28;37.47;;;6.90;99.90;;;;;;5066094;28;20045;-76
2023/04/07 04:20:07;;;;;;;54.63;36.92;;;6.90;99.90;;;;;;5062704;28;20406;-77
2023/04/07 04:22:33;;;;;;;59.45;39.13;;;6.90;99.90;;;;;;5062974;28;20560;-76
2023/04/07 04:24:59;;;;;;;51.42;37.63;;;6.90;99.90;;;;;;5048214;28;20048;-75
2023/04/07 04:27:25;;;;;;;55.10;39.50;;;6.90;99.90;;;;;;5065924;28;20036;-75
2023/04/07 04:29:51;;;;;;;56.28;38.95;;;6.90;99.90;;;;;;5060698;28;20562;-75
2023/04/07 04:32:16;;;;;;;56.10;36.55;;;6.90;99.90;;;;;;5066299;28;20131;-75
2023/04/07 04:34:42;;;;;;;47.58;35.63;;;6.90;99.90;;;;;;5043569;28;20044;-75
2023/04/07 04:37:08;;;;;;;49.10;36.28;;;6.90;99.90;;;;;;5058925;28;20051;-75
2023/04/07 04:39:34;;;;;;;51.35;37.25;;;6.90;99.90;;;;;;5067656;28;20459;-75
2023/04/07 04:42:00;;;;;;;45.17;34.47;;;6.80;99.90;;;;;;5066047;28;20044;-75
2023/04/07 04:44:26;;;;;;;57.45;39.58;;;6.90;99.90;;;;;;5063419;28;20083;-75
2023/04/07 04:46:52;;;;;;;54.90;38.50;;;6.90;99.90;;;;;;5061320;28;20072;-74
2023/04/07 04:49:18;;;;;;;48.42;36.25;;;6.90;99.90;;;;;;5063453;28;20097;-74
2023/04/07 04:51:44;;;;;;;55.58;37.92;;;6.80;99.90;;;;;;5063370;28;20056;-75
2023/04/07 04:54:10;;;;;;;47.17;34.70;;;6.80;99.90;;;;;;5060133;28;20075;-75
2023/04/07 04:56:36;;;;;;;48.88;37.33;;;6.90;99.90;;;;;;5065276;28;20044;-76
2023/04/07 04:59:03;;;;;;;52.70;37.00;;;6.80;99.90;;;;;;5067014;28;20048;-75
2023/04/07 05:01:29;;;;;;;52.37;36.10;;;6.80;99.90;;;;;;5064813;28;20055;-75
2023/04/07 05:03:55;;;;;;;46.47;35.35;;;6.80;99.90;;;;;;5057947;28;20456;-75
2023/04/07 05:06:21;;;;;;;53.55;36.70;;;6.80;99.90;;;;;;5064821;28;20495;-75
2023/04/07 05:08:46;;;;;;;52.17;37.53;;;6.80;99.90;;;;;;5056696;28;20045;-75
2023/04/07 05:11:13;;;;;;;49.50;37.58;;;6.80;99.90;;;;;;5066472;28;20045;-75
2023/04/07 05:13:39;;;;;;;49.75;34.03;;;6.90;99.90;;;;;;5067176;28;20044;-76
2023/04/07 05:16:05;;;;;;;44.78;34.58;;;6.90;99.90;;;;;;5065044;28;20800;-76
2023/04/07 05:18:32;;;;;;;48.17;34.78;;;6.90;99.90;;;;;;5046283;28;20033;-76
2023/04/07 05:20:58;;;;;;;48.80;37.03;;;6.80;99.90;;;;;;5063688;28;20044;-75
2023/04/07 05:23:24;;;;;;;54.63;37.85;;;6.90;99.90;;;;;;5058710;28;20044;-75
2023/04/07 05:25:50;;;;;;;51.75;36.55;;;6.80;99.90;;;;;;5062103;28;20498;-75
2023/04/07 05:28:16;;;;;;;51.83;36.22;;;6.80;99.90;;;;;;5042731;28;20040;-75
2023/04/07 05:30:41;;;;;;;54.15;37.53;;;6.80;99.90;;;;;;5062851;28;20044;-76
2023/04/07 05:33:07;;;;;;;51.40;37.70;;;6.80;99.90;;;;;;5056041;28;20056;-76
2023/04/07 05:35:33;;;;;;;51.17;36.75;;;6.80;99.90;;;;;;5062497;28;20049;-75
2023/04/07 05:37:58;;;;;;;50.80;35.08;;;6.80;99.90;;;;;;5057098;28;20063;-75
2023/04/07 05:40:24;;;;;;;56.72;39.22;;;6.80;99.90;;;;;;5065132;28;20493;-75
2023/04/07 05:42:50;;;;;;;50.33;36.83;;;6.80;99.90;;;;;;5066335;28;20437;-75
2023/04/07 05:45:15;;;;;;;52.28;38.70;;;6.80;99.90;;;;;;5067157;28;20137;-75
2023/04/07 05:47:41;;;;;;;51.42;39.20;;;6.80;99.90;;;;;;5059440;28;20048;-75
2023/04/07 05:50:09;;;;;;;54.65;38.10;;;6.80;99.90;;;;;;5059067;28;20437;-75
2023/04/07 05:52:35;;;;;;;59.35;38.92;;;6.80;99.90;;;;;;5059749;28;20049;-76
2023/04/07 05:55:01;;;;;;;48.58;36.50;;;6.80;99.90;;;;;;5064423;28;20541;-75
2023/04/07 05:57:27;;;;;;;51.10;36.20;;;6.80;99.90;;;;;;5060035;28;20178;-75
2023/04/07 05:59:53;;;;;;;48.38;36.75;;;6.80;99.90;;;;;;5057143;28;20690;-75
2023/04/07 06:02:19;;;;;;;50.75;35.58;;;6.80;99.90;;;;;;5062635;28;20056;-75
2023/04/07 06:04:46;;;;;;;52.90;37.58;;;6.80;99.90;;;;;;5068835;28;20052;-76
2023/04/07 06:07:11;;;;;;;52.70;38.17;;;6.90;99.90;;;;;;5052305;28;20048;-75
2023/04/07 06:09:37;;;;;;;46.10;36.40;;;6.90;99.90;;;;;;5061712;28;20049;-75
2023/04/07 06:12:05;;;;;;;49.92;36.95;;;6.90;99.90;;;;;;5068839;28;20060;-75
2023/04/07 06:14:31;;;;;;;51.53;37.38;;;6.90;99.90;;;;;;5067990;28;20122;-76
2023/04/07 06:16:56;;;;;;;50.90;37.17;;;6.90;99.90;;;;;;5066650;28;20110;-74
2023/04/07 06:19:22;;;;;;;47.05;34.88;;;6.90;99.90;;;;;;5070363;28;20409;-74
2023/04/07 06:21:48;;;;;;;48.47;34.50;;;7.00;99.90;;;;;;5069249;28;20033;-74
2023/04/07 06:24:13;;;;;;;47.92;36.58;;;7.00;99.90;;;;;;5064648;28;20896;-74
2023/04/07 06:26:40;;;;;;;49.05;34.55;;;7.00;99.90;;;;;;5067146;28;20045;-74
2023/04/07 06:29:06;;;;;;;49.15;35.47;;;7.00;99.90;;;;;;5060309;28;20056;-74
2023/04/07 06:31:31;;;;;;;53.22;37.33;;;7.00;99.90;;;;;;5062858;28;20386;-74
2023/04/07 06:33:57;;;;;;;47.17;33.92;;;7.10;99.90;;;;;;5066616;28;20516;-74
2023/04/07 06:36:23;;;;;;;54.42;36.22;;;7.10;99.90;;;;;;5065445;28;20080;-74
2023/04/07 06:38:49;;;;;;;45.17;35.50;;;7.10;99.90;;;;;;5070242;28;20047;-74
2023/04/07 06:41:18;;;;;;;52.28;34.90;;;7.10;99.90;;;;;;5068234;28;20584;-74
2023/04/07 06:43:44;;;;;;;;;;;7.20;99.90;;;;;;5067314;28;20096;-75
2023/04/07 06:46:10;;;;;;;46.97;34.30;;;7.10;99.90;;;;;;5059467;28;19925;-75
2023/04/07 06:48:36;;;;;;;44.95;34.47;;;7.20;99.90;;;;;;5064590;28;20109;-75
2023/04/07 06:51:01;;;;;;;44.20;32.97;;;7.20;99.90;;;;;;5061349;28;20600;-75
2023/04/07 06:53:27;;;;;;;45.38;32.72;;;7.20;99.90;;;;;;5058002;28;20224;-75
2023/04/07 06:56:09;;;;;;;46.10;32.58;;;7.20;99.90;;;;;;5056622;28;20447;-75
2023/04/07 06:58:35;;;;;;;49.70;34.15;;;7.30;99.90;;;;;;5064805;28;20102;-75
2023/04/07 07:01:03;;;;;;;46.13;35.65;;;7.30;99.90;;;;;;5058431;28;20052;-75
2023/04/07 07:03:30;;;;;;;50.08;35.22;;;7.40;99.90;;;;;;5069046;28;20049;-75
2023/04/07 07:05:56;;;;;;;44.13;34.75;;;7.40;99.90;;;;;;5065189;28;20086;-75
2023/04/07 07:08:23;;;;;;;43.28;34.03;;;7.40;99.90;;;;;;5059607;28;20465;-75
2023/04/07 07:10:50;;;;;;;46.28;34.58;;;7.50;99.90;;;;;;5068351;28;20056;-75
2023/04/07 07:13:23;;;;;;;41.65;31.85;;;7.50;99.90;;;;;;5066073;28;20051;-75
2023/04/07 07:15:49;;;;;;;47.95;33.97;;;7.50;99.90;;;;;;5061957;28;20063;-75
2023/04/07 07:18:16;;;;;;;41.53;33.17;;;7.60;99.90;;;;;;5057825;28;20093;-75
2023/04/07 07:20:41;;;;;;;44.53;31.83;;;7.60;99.90;;;;;;5066378;28;20541;-74
2023/04/07 07:23:07;;;;;;;43.70;34.33;;;7.60;99.90;;;;;;5061192;28;20037;-75
2023/04/07 07:25:33;;;;;;;42.80;31.63;;;7.60;99.90;;;;;;5068915;28;20037;-74
2023/04/07 07:27:58;;;;;;;37.65;29.00;;;7.60;99.90;;;;;;5065940;28;20469;-75
2023/04/07 07:30:25;;;;;;;41.40;33.22;;;7.60;99.90;;;;;;5066459;28;20094;-75
2023/04/07 07:32:52;;;;;;;38.63;29.70;;;7.70;99.90;;;;;;5062697;28;20052;-75
2023/04/07 07:35:18;;;;;;;37.60;29.10;;;7.70;99.90;;;;;;5050617;28;20500;-74
2023/04/07 07:37:44;;;;;;;37.75;28.85;;;7.70;99.90;;;;;;5058431;28;20040;-76
2023/04/07 07:40:10;;;;;;;36.35;29.15;;;7.70;99.90;;;;;;5065802;28;20509;-74
2023/04/07 07:42:36;;;;;;;39.08;28.95;;;7.80;99.90;;;;;;5066868;28;20037;-75
2023/04/07 07:45:02;;;;;;;32.03;26.48;;;7.80;99.90;;;;;;5061279;28;20087;-75
2023/04/07 07:47:28;;;;;;;39.28;29.17;;;7.80;99.90;;;;;;5069385;28;20064;-75
2023/04/07 07:49:54;;;;;;;34.20;29.27;;;7.90;99.90;;;;;;5066434;28;20028;-75
2023/04/07 07:52:20;;;;;;;35.00;28.08;;;7.90;99.90;;;;;;5059214;28;20406;-75
2023/04/07 07:54:50;;;;;;;41.15;27.15;;;7.90;99.90;;;;;;5066034;28;20155;-75
2023/04/07 07:57:15;;;;;;;37.28;25.60;;;7.90;99.90;;;;;;5056633;28;20060;-75
2023/04/07 07:59:41;;;;;;;32.72;25.35;;;8.00;99.90;;;;;;5065764;28;20155;-75
2023/04/07 08:02:08;;;;;;;37.45;27.83;;;8.00;99.90;;;;;;5060766;28;20513;-74
2023/04/07 08:04:35;;;;;;;32.88;26.33;;;8.00;99.90;;;;;;5062422;28;20052;-75
2023/04/07 08:07:01;;;;;;;33.17;26.67;;;8.00;99.90;;;;;;5060789;28;20425;-75
2023/04/07 08:09:29;;;;;;;37.58;27.73;;;8.00;99.90;;;;;;5056063;28;20049;-75
2023/04/07 08:11:54;;;;;;;33.08;24.58;;;8.00;99.90;;;;;;5061362;28;20052;-75
2023/04/07 08:14:20;;;;;;;31.33;25.42;;;8.00;99.90;;;;;;5063045;28;20826;-75
2023/04/07 08:16:46;;;;;;;33.20;25.08;;;8.00;99.90;;;;;;5067362;28;20044;-75
2023/04/07 08:19:12;;;;;;;36.90;26.80;;;8.00;99.90;;;;;;5066311;28;20047;-76
2023/04/07 08:21:38;;;;;;;30.65;24.88;;;8.00;99.90;;;;;;5067311;28;20052;-76
2023/04/07 08:24:05;;;;;;;29.38;23.35;;;8.10;99.90;;;;;;5064188;28;20492;-77
2023/04/07 08:26:32;;;;;;;37.17;25.25;;;8.10;99.90;;;;;;5062055;28;20783;-75
2023/04/07 08:28:57;;;;;;;31.67;24.98;;;8.10;99.90;;;;;;5055104;28;20037;-75
2023/04/07 08:31:24;;;;;;;35.47;25.63;;;8.10;99.90;;;;;;5063853;28;20047;-76
2023/04/07 08:33:57;;;;;;;33.75;26.55;;;8.10;99.90;;;;;;5057802;28;20052;-75
2023/04/07 08:36:23;;;;;;;36.75;28.63;;;8.10;99.90;;;;;;5058519;28;20048;-75
2023/04/07 08:38:49;;;;;;;31.58;26.40;;;8.10;99.90;;;;;;5065199;28;20115;-75
2023/04/07 08:41:27;;;;;;;37.63;27.92;;;8.20;99.90;;;;;;5064750;28;20546;-76
2023/04/07 08:43:56;;;;;;;35.65;29.45;;;8.20;99.90;;;;;;5052992;28;20174;-76
2023/04/07 08:46:24;;;;;;;35.58;27.88;;;8.20;99.90;;;;;;5063419;28;20048;-76
2023/04/07 08:48:51;;;;;;;37.85;28.67;;;8.20;99.90;;;;;;5055566;28;20144;-76
2023/04/07 08:51:26;;;;;;;36.17;28.92;;;8.20;99.90;;;;;;5061818;28;20053;-76
2023/04/07 08:53:53;;;;;;;40.85;29.90;;;8.20;99.90;;;;;;5058576;28;20528;-76
2023/04/07 08:56:20;;;;;;;37.85;29.70;;;8.10;99.90;;;;;;5057835;28;20041;-76
2023/04/07 08:58:47;;;;;;;35.35;27.63;;;8.20;99.90;;;;;;5061681;28;20060;-76
2023/04/07 09:01:14;;;;;;;34.95;26.63;;;8.30;99.90;;;;;;5065629;28;20080;-76
2023/04/07 09:03:42;;;;;;;35.50;29.30;;;8.30;99.90;;;;;;5060131;28;20507;-76
2023/04/07 09:06:10;;;;;;;36.05;29.50;;;8.30;99.90;;;;;;5056111;28;20502;-77
2023/04/07 09:08:35;;;;;;;39.50;29.83;;;8.40;99.90;;;;;;5064268;28;20087;-76
2023/04/07 09:11:01;;;;;;;36.97;28.10;;;8.40;99.90;;;;;;5066177;28;20616;-76
2023/04/07 09:13:27;;;;;;;34.30;26.98;;;8.40;99.90;;;;;;5066165;28;20565;-76
2023/04/07 09:15:53;;;;;;;37.95;29.15;;;8.50;99.90;;;;;;5058746;28;20044;-76
2023/04/07 09:18:19;;;;;;;38.90;29.70;;;8.50;99.90;;;;;;5055513;28;20383;-76
2023/04/07 09:20:57;;;;;;;30.15;24.98;;;8.50;99.90;;;;;;5053619;28;20055;-76
2023/04/07 09:23:34;;;;;;;35.33;25.40;;;8.50;99.90;;;;;;5061568;28;20072;-76
2023/04/07 09:26:17;;;;;;;31.90;25.05;;;8.50;99.90;;;;;;5058294;28;20120;-76
2023/04/07 09:28:54;;;;;;;29.33;24.45;;;8.60;99.90;;;;;;5061412;28;20045;-75
2023/04/07 09:31:21;;;;;;;28.73;23.50;;;8.70;99.90;;;;;;5061958;28;20080;-75
2023/04/07 09:33:48;;;;;;;28.30;24.17;;;8.70;99.90;;;;;;5059108;28;20529;-76
2023/04/07 09:36:14;;;;;;;26.52;20.77;;;8.70;99.90;;;;;;5058777;28;20056;-75
2023/04/07 09:38:41;;;;;;;23.60;19.95;;;8.80;99.90;;;;;;5064683;28;20055;-76
2023/04/07 09:41:08;;;;;;;26.83;21.08;;;8.80;99.90;;;;;;5065007;28;20045;-76
2023/04/07 09:43:40;;;;;;;27.30;21.48;;;9.00;99.90;;;;;;5063436;28;20517;-75
2023/04/07 09:46:18;;;;;;;21.13;18.98;;;9.00;99.90;;;;;;5059155;28;20045;-75
2023/04/07 09:48:45;;;;;;;21.42;18.08;;;9.10;99.90;;;;;;5059164;28;20573;-76
2023/04/07 09:51:13;;;;;;;25.08;20.05;;;9.20;99.90;;;;;;5057191;28;20638;-76
2023/04/07 09:53:51;;;;;;;27.33;21.70;;;9.10;99.90;;;;;;5063086;28;20045;-75
2023/04/07 09:56:21;;;;;;;27.27;22.65;;;9.20;99.90;;;;;;5061164;28;20052;-76
2023/04/07 09:58:47;;;;;;;30.85;24.05;;;9.20;99.90;;;;;;5061244;28;20090;-76
2023/04/07 10:01:17;;;;;;;26.65;22.65;;;9.30;99.90;;;;;;5056028;28;20057;-75
2023/04/07 10:03:45;;;;;;;33.03;23.52;;;9.30;99.90;;;;;;5059482;28;20059;-75
2023/04/07 10:06:12;;;;;;;24.17;21.35;;;9.40;99.90;;;;;;5061526;28;20126;-76
2023/04/07 10:08:40;;;;;;;27.52;23.80;;;9.30;99.90;;;;;;5058298;28;20474;-76
2023/04/07 10:11:06;;;;;;;;;;;9.40;99.90;;;;;;5061278;28;20046;-75
2023/04/07 10:13:35;;;;;;;23.80;20.25;;;9.40;99.90;;;;;;5058300;28;19932;-75
2023/04/07 10:16:05;;;;;;;23.10;18.42;;;9.30;99.90;;;;;;5065863;28;20094;-75
2023/04/07 10:18:32;;;;;;;25.27;20.95;;;9.30;99.90;;;;;;5065375;28;20123;-75
2023/04/07 10:21:03;;;;;;;25.45;21.35;;;9.30;99.90;;;;;;5058767;28;20148;-75
2023/04/07 10:23:52;;;;;;;26.95;19.83;;;9.40;99.90;;;;;;5056484;28;20052;-75
2023/04/07 10:26:22;;;;;;;24.98;20.88;;;9.50;99.90;;;;;;5073336;28;20643;-74
2023/04/07 10:28:54;;;;;;;27.30;20.50;;;9.50;99.90;;;;;;5061302;28;20040;-75
2023/04/07 10:31:21;;;;;;;24.73;20.83;;;9.70;99.90;;;;;;5061448;28;20049;-75
2023/04/07 10:33:52;;;;;;;27.83;20.25;;;9.70;99.90;;;;;;5060899;28;20071;-75
2023/04/07 10:36:21;;;;;;;23.08;19.45;;;9.80;99.90;;;;;;5056725;28;20213;-75
2023/04/07 10:39:05;;;;;;;22.58;19.50;;;9.90;99.90;;;;;;5058355;28;20647;-75
2023/04/07 10:41:36;;;;;;;21.40;18.75;;;10.00;99.90;;;;;;5060539;28;20053;-75
2023/04/07 10:44:03;;;;;;;27.42;20.27;;;10.00;99.90;;;;;;5049505;28;20809;-75
2023/04/07 10:46:51;;;;;;;23.70;19.05;;;10.10;99.90;;;;;;5062049;28;20041;-75
2023/04/07 10:49:17;;;;;;;23.38;17.90;;;10.20;99.90;;;;;;5067124;28;20492;-74
2023/04/07 10:51:43;;;;;;;23.60;19.48;;;10.30;99.90;;;;;;5065669;28;20049;-75
2023/04/07 10:54:22;;;;;;;21.67;18.67;;;10.30;99.90;;;;;;5064530;28;20073;-75
2023/04/07 10:57:09;;;;;;;20.90;17.90;;;10.40;99.90;;;;;;5083622;28;20048;-74
2023/04/07 10:59:36;;;;;;;20.08;16.35;;;10.40;99.90;;;;;;5068389;28;20037;-74
2023/04/07 11:02:11;;;;;;;20.42;16.35;;;10.30;99.90;;;;;;5061731;28;20055;-74
2023/04/07 11:04:38;;;;;;;18.13;15.43;;;10.30;99.90;;;;;;5062060;28;20148;-75
2023/04/07 11:07:03;;;;;;;21.17;17.38;;;10.30;99.90;;;;;;5064058;28;20029;-74
2023/04/07 11:09:29;;;;;;;17.65;15.65;;;10.30;99.90;;;;;;5062036;28;20033;-75
2023/04/07 11:11:55;;;;;;;18.58;16.65;;;10.40;99.90;;;;;;5060093;28;20043;-74
2023/04/07 11:14:40;;;;;;;18.90;16.25;;;10.40;99.90;;;;;;5064735;28;20043;-75
2023/04/07 11:17:13;;;;;;;19.08;16.15;;;10.50;99.90;;;;;;5063262;28;20437;-74
2023/04/07 11:19:52;;;;;;;19.13;15.38;;;10.60;99.90;;;;;;5062638;28;20401;-74
2023/04/07 11:22:18;;;;;;;17.63;14.82;;;10.60;99.90;;;;;;5066146;28;20093;-74
2023/04/07 11:24:45;;;;;;;20.17;16.08;;;10.60;99.90;;;;;;5065254;28;20460;-74
2023/04/07 11:27:12;;;;;;;19.10;14.52;;;10.60;99.90;;;;;;5069772;28;20075;-74
2023/04/07 11:29:38;;;;;;;17.23;15.20;;;10.70;99.90;;;;;;5068321;28;20041;-74
2023/04/07 11:32:05;;;;;;;13.93;12.43;;;10.70;99.90;;;;;;5065512;28;20044;-75
2023/04/07 11:34:36;;;;;;;15.80;13.63;;;10.80;99.90;;;;;;5065025;28;20516;-72
2023/04/07 11:37:27;;;;;;;15.48;13.88;;;10.80;99.90;;;;;;5068334;28;20043;-75
2023/04/07 11:39:57;;;;;;;19.63;12.20;;;10.90;99.90;;;;;;5057034;28;20448;-75
2023/04/07 11:42:37;;;;;;;15.95;14.27;;;10.90;99.90;;;;;;5064121;28;20525;-75
2023/04/07 11:45:03;;;;;;;15.95;14.05;;;10.90;99.90;;;;;;5051672;28;20040;-76
2023/04/07 11:47:39;;;;;;;20.25;14.27;;;10.90;99.90;;;;;;5058678;28;20053;-76
2023/04/07 11:50:06;;;;;;;14.45;12.52;;;11.00;99.90;;;;;;5055841;28;20047;-75
2023/04/07 11:52:46;;;;;;;13.73;11.50;;;10.90;99.90;;;;;;5067822;28;20044;-75
2023/04/07 11:55:20;;;;;;;12.45;11.10;;;11.00;99.90;;;;;;5062258;28;20157;-75
2023/04/07 11:57:46;;;;;;;15.48;12.57;;;11.10;99.90;;;;;;5049626;28;20211;-75
2023/04/07 12:00:19;;;;;;;12.70;11.32;;;11.10;99.90;;;;;;5057024;28;20110;-75
2023/04/07 12:02:45;;;;;;;13.98;11.52;;;11.10;99.90;;;;;;5058520;28;20130;-75
2023/04/07 12:05:11;;;;;;;14.90;12.52;;;11.10;99.90;;;;;;5056647;28;20063;-75
2023/04/07 12:07:38;;;;;;;13.05;11.15;;;11.20;99.90;;;;;;5058870;28;20477;-75
2023/04/07 12:10:26;;;;;;;11.07;9.27;;;11.30;99.90;;;;;;5060526;28;20040;-76
2023/04/07 12:12:52;;;;;;;13.57;11.10;;;11.30;99.90;;;;;;5060058;28;20084;-75
2023/04/07 12:15:19;;;;;;;12.27;11.00;;;11.40;99.90;;;;;;5048108;28;20472;-75
2023/04/07 12:17:46;;;;;;;14.38;10.32;;;11.40;99.90;;;;;;5067510;28;20123;-75
2023/04/07 12:20:13;;;;;;;12.03;10.83;;;11.50;99.90;;;;;;5063122;28;20480;-76
2023/04/07 12:22:39;;;;;;;13.00;10.20;;;11.50;99.90;;;;;;5065804;28;20142;-75
2023/04/07 12:25:05;;;;;;;12.90;10.60;;;11.60;99.90;;;;;;5066083;28;20040;-76
2023/04/07 12:27:31;;;;;;;11.05;9.43;;;11.50;99.90;;;;;;5067265;28;20095;-75
2023/04/07 12:29:57;;;;;;;12.75;9.77;;;11.50;99.90;;;;;;5067061;28;20493;-75
2023/04/07 12:32:24;;;;;;;12.43;11.13;;;11.50;99.90;;;;;;5064986;28;20040;-75
2023/04/07 12:34:50;;;;;;;13.93;12.50;;;11.50;99.90;;;;;;5062262;28;20041;-76
2023/04/07 12:37:16;;;;;;;14.25;12.75;;;11.60;99.90;;;;;;5061717;28;20067;-75
2023/04/07 12:39:42;;;;;;;12.85;11.52;;;11.60;99.90;;;;;;5061555;28;20056;-75